createdAt,value
2019-06-26T00:01:28.145Z,98.00
2019-06-26T00:03:53.132Z,98.70
2019-06-26T00:06:18.156Z,98.30
2019-06-26T00:08:43.259Z,98.20
2019-06-26T00:11:08.293Z,98.30
2019-06-26T00:13:33.272Z,98.30
2019-06-26T00:15:58.294Z,98.80
2019-06-26T00:18:23.431Z,98.50
2019-06-26T00:20:48.395Z,98.70
2019-06-26T00:23:13.491Z,98.70
2019-06-26T00:25:38.531Z,98.80
2019-06-26T00:28:03.596Z,98.80
2019-06-26T00:30:28.583Z,98.80
2019-06-26T00:32:53.617Z,98.80
2019-06-26T00:35:18.695Z,98.90
2019-06-26T00:37:43.742Z,99.30
2019-06-26T00:40:10.000Z,98.80
2019-06-26T00:42:35.117Z,99.10
2019-06-26T00:45:00.096Z,99.10
2019-06-26T00:47:25.155Z,99.20
2019-06-26T00:49:50.154Z,99.20
2019-06-26T00:52:15.132Z,99.50
2019-06-26T00:54:40.096Z,99.60
2019-06-26T00:57:05.161Z,99.40
2019-06-26T00:59:30.374Z,99.60
2019-06-26T01:01:55.367Z,99.60
2019-06-26T01:04:25.219Z,99.50
2019-06-26T01:06:50.210Z,99.60
2019-06-26T01:09:15.663Z,99.70
2019-06-26T01:11:40.755Z,99.90
2019-06-26T01:14:05.858Z,99.90
2019-06-26T01:16:30.891Z,99.90
2019-06-26T01:18:55.867Z,99.80
2019-06-26T01:21:20.906Z,99.80
2019-06-26T01:23:46.011Z,99.90
2019-06-26T01:26:11.052Z,99.90
2019-06-26T01:28:35.962Z,99.90
2019-06-26T01:31:00.983Z,99.90
2019-06-26T01:33:25.963Z,99.90
2019-06-26T01:35:50.927Z,99.90
2019-06-26T01:38:15.844Z,99.90
2019-06-26T01:40:40.889Z,99.90
2019-06-26T01:43:05.967Z,99.90
2019-06-26T01:45:30.927Z,99.90
2019-06-26T01:47:56.951Z,99.90
2019-06-26T01:50:21.983Z,99.90
2019-06-26T01:52:46.899Z,99.90
2019-06-26T01:55:12.115Z,99.90
2019-06-26T01:57:37.186Z,99.90
2019-06-26T02:00:02.277Z,99.90
2019-06-26T02:02:28.818Z,99.90
2019-06-26T02:04:53.911Z,99.90
2019-06-26T02:07:19.248Z,99.90
2019-06-26T02:09:45.184Z,99.90
2019-06-26T02:12:10.182Z,99.90
2019-06-26T02:14:35.158Z,99.90
2019-06-26T02:17:00.200Z,99.90
2019-06-26T02:19:25.175Z,99.90
2019-06-26T02:21:50.142Z,99.90
2019-06-26T02:24:15.294Z,99.90
2019-06-26T02:26:40.247Z,99.90
2019-06-26T02:29:05.239Z,99.90
2019-06-26T02:31:30.276Z,99.90
2019-06-26T02:33:55.336Z,99.90
2019-06-26T02:36:20.364Z,99.90
2019-06-26T02:38:45.271Z,99.90
2019-06-26T02:41:10.319Z,99.90
2019-06-26T02:43:35.391Z,99.90
2019-06-26T02:46:00.427Z,99.90
2019-06-26T02:48:25.408Z,99.90
2019-06-26T02:50:50.451Z,99.90
2019-06-26T02:53:15.506Z,99.90
2019-06-26T02:55:40.394Z,99.90
2019-06-26T02:58:05.468Z,99.90
2019-06-26T03:00:30.503Z,99.90
2019-06-26T03:02:55.567Z,99.90
2019-06-26T03:05:20.459Z,99.90
2019-06-26T03:07:45.429Z,99.90
2019-06-26T03:10:11.114Z,99.90
2019-06-26T03:12:36.073Z,99.90
2019-06-26T03:15:08.883Z,99.90
2019-06-26T03:17:27.722Z,99.90
2019-06-26T03:19:52.774Z,99.90
2019-06-26T03:22:17.855Z,99.90
2019-06-26T03:24:42.890Z,99.90
2019-06-26T03:27:09.178Z,99.90
2019-06-26T03:29:34.387Z,99.90
2019-06-26T03:31:59.429Z,99.90
2019-06-26T03:34:24.487Z,99.90
2019-06-26T03:36:49.482Z,99.90
2019-06-26T03:39:14.564Z,99.90
2019-06-26T03:41:39.536Z,99.90
2019-06-26T03:44:04.597Z,99.90
2019-06-26T03:46:29.669Z,99.90
2019-06-26T03:48:54.792Z,99.90
2019-06-26T03:51:19.838Z,99.90
2019-06-26T03:53:44.816Z,99.90
2019-06-26T03:56:09.900Z,99.90
2019-06-26T03:58:34.916Z,99.90
2019-06-26T04:00:59.915Z,99.90
2019-06-26T04:03:24.807Z,99.90
2019-06-26T04:05:49.867Z,99.90
2019-06-26T04:08:14.832Z,99.90
2019-06-26T04:10:43.065Z,99.90
2019-06-26T04:13:06.413Z,99.90
2019-06-26T04:15:41.263Z,99.90
2019-06-26T04:17:58.230Z,99.90
2019-06-26T04:20:23.275Z,99.90
2019-06-26T04:22:48.334Z,99.90
2019-06-26T04:25:13.460Z,99.90
2019-06-26T04:27:38.498Z,99.90
2019-06-26T04:30:04.968Z,99.90
2019-06-26T04:32:29.856Z,99.90
2019-06-26T04:34:54.843Z,99.90
2019-06-26T04:37:19.881Z,99.90
2019-06-26T04:39:44.895Z,99.90
2019-06-26T04:42:09.946Z,99.90
2019-06-26T04:44:35.194Z,99.90
2019-06-26T04:47:00.210Z,99.90
2019-06-26T04:49:25.099Z,99.90
2019-06-26T04:51:50.082Z,99.90
2019-06-26T04:54:15.946Z,99.90
2019-06-26T04:56:40.860Z,99.90
2019-06-26T04:59:05.825Z,99.90
2019-06-26T05:01:30.815Z,99.90
2019-06-26T05:03:55.790Z,99.90
2019-06-26T05:06:20.863Z,99.90
2019-06-26T05:08:45.942Z,99.90
2019-06-26T05:11:12.751Z,99.90
2019-06-26T05:13:37.562Z,99.90
2019-06-26T05:16:14.155Z,99.90
2019-06-26T05:18:29.311Z,99.90
2019-06-26T05:20:54.353Z,99.90
2019-06-26T05:23:19.330Z,99.90
2019-06-26T05:25:44.541Z,99.90
2019-06-26T05:28:09.570Z,99.90
2019-06-26T05:30:34.648Z,99.90
2019-06-26T05:32:59.601Z,99.90
2019-06-26T05:35:24.650Z,99.90
2019-06-26T05:37:49.717Z,99.90
2019-06-26T05:40:15.158Z,99.90
2019-06-26T05:42:40.234Z,99.90
2019-06-26T05:45:05.726Z,99.90
2019-06-26T05:47:30.835Z,99.90
2019-06-26T05:49:56.785Z,99.90
2019-06-26T05:52:21.743Z,99.90
2019-06-26T05:54:46.786Z,99.90
2019-06-26T05:57:11.779Z,99.90
2019-06-26T05:59:36.678Z,99.90
2019-06-26T06:02:01.738Z,99.90
2019-06-26T06:04:26.778Z,99.90
2019-06-26T06:06:51.862Z,99.90
2019-06-26T06:09:16.889Z,99.90
2019-06-26T06:11:41.992Z,99.90
2019-06-26T06:14:06.997Z,99.90
2019-06-26T06:16:46.456Z,98.50
2019-06-26T06:18:58.732Z,98.90
2019-06-26T06:21:23.771Z,99.10
2019-06-26T06:23:48.835Z,96.80
2019-06-26T06:26:13.947Z,97.20
2019-06-26T06:28:38.863Z,98.70
2019-06-26T06:31:03.903Z,97.80
2019-06-26T06:33:28.897Z,95.60
2019-06-26T06:35:54.130Z,94.20
2019-06-26T06:38:19.033Z,95.10
2019-06-26T06:40:44.062Z,93.60
2019-06-26T06:43:08.978Z,92.60
2019-06-26T06:45:34.014Z,94.40
2019-06-26T06:47:59.016Z,91.90
2019-06-26T06:50:24.083Z,91.10
2019-06-26T06:52:48.973Z,90.70
2019-06-26T06:55:14.218Z,91.70
2019-06-26T06:57:39.495Z,90.10
2019-06-26T07:00:05.674Z,91.00
2019-06-26T07:02:30.891Z,90.20
2019-06-26T07:04:55.822Z,88.50
2019-06-26T07:07:21.049Z,87.20
2019-06-26T07:09:46.408Z,87.90
2019-06-26T07:12:11.611Z,88.80
2019-06-26T07:14:37.074Z,81.60
2019-06-26T07:17:02.063Z,86.20
2019-06-26T07:19:28.245Z,84.50
2019-06-26T07:21:53.583Z,88.80
2019-06-26T07:24:18.635Z,81.50
2019-06-26T07:26:46.451Z,79.80
2019-06-26T07:29:11.940Z,82.80
2019-06-26T07:31:38.718Z,83.30
2019-06-26T07:34:04.051Z,83.90
2019-06-26T07:36:29.055Z,78.60
2019-06-26T07:38:54.328Z,81.40
2019-06-26T07:41:19.363Z,78.80
2019-06-26T07:43:44.340Z,77.60
2019-06-26T07:46:09.350Z,76.70
2019-06-26T07:48:34.434Z,73.10
2019-06-26T07:50:59.479Z,75.10
2019-06-26T07:53:24.779Z,74.30
2019-06-26T07:55:49.825Z,75.60
2019-06-26T07:58:15.078Z,74.60
2019-06-26T08:00:40.882Z,74.70
2019-06-26T08:03:06.450Z,80.60
2019-06-26T08:05:31.528Z,77.10
2019-06-26T08:07:56.734Z,78.80
2019-06-26T08:10:22.772Z,75.50
2019-06-26T08:12:48.007Z,74.10
2019-06-26T08:15:13.616Z,77.00
2019-06-26T08:17:38.588Z,77.30
2019-06-26T08:20:03.911Z,77.90
2019-06-26T08:22:30.175Z,76.70
2019-06-26T08:24:55.167Z,82.10
2019-06-26T08:27:20.259Z,80.10
2019-06-26T08:29:45.254Z,79.30
2019-06-26T08:32:10.490Z,77.70
2019-06-26T08:34:35.470Z,77.30
2019-06-26T08:37:00.437Z,75.80
2019-06-26T08:39:25.750Z,78.40
2019-06-26T08:41:51.312Z,76.00
2019-06-26T08:44:16.368Z,77.40
2019-06-26T08:46:41.626Z,77.50
2019-06-26T08:49:21.089Z,78.80
2019-06-26T08:51:33.350Z,78.80
2019-06-26T08:53:58.370Z,77.20
2019-06-26T08:56:26.418Z,80.20
2019-06-26T08:58:51.718Z,75.90
2019-06-26T09:01:16.715Z,76.00
2019-06-26T09:03:42.236Z,76.70
2019-06-26T09:06:09.111Z,75.70
2019-06-26T09:08:34.039Z,75.50
2019-06-26T09:10:58.991Z,76.00
2019-06-26T09:13:23.963Z,77.60
2019-06-26T09:15:50.057Z,76.90
2019-06-26T09:18:15.189Z,75.30
2019-06-26T09:20:41.107Z,77.20
2019-06-26T09:23:06.192Z,74.90
2019-06-26T09:25:31.448Z,72.50
2019-06-26T09:27:56.402Z,73.70
2019-06-26T09:30:22.839Z,73.60
2019-06-26T09:32:47.802Z,75.20
2019-06-26T09:35:13.123Z,75.50
2019-06-26T09:37:38.208Z,76.90
2019-06-26T09:40:03.155Z,74.00
2019-06-26T09:42:28.755Z,73.10
2019-06-26T09:44:53.710Z,72.10
2019-06-26T09:47:18.675Z,70.60
2019-06-26T09:49:43.663Z,68.90
2019-06-26T09:52:09.118Z,73.00
2019-06-26T09:54:34.030Z,69.00
2019-06-26T09:56:58.918Z,70.50
2019-06-26T09:59:24.507Z,70.90
2019-06-26T10:01:49.640Z,74.20
2019-06-26T10:04:15.114Z,76.30
2019-06-26T10:06:40.087Z,72.40
2019-06-26T10:09:07.030Z,73.10
2019-06-26T10:11:32.004Z,73.40
2019-06-26T10:13:56.970Z,71.20
2019-06-26T10:16:23.271Z,71.40
2019-06-26T10:18:48.494Z,72.20
2019-06-26T10:21:14.089Z,68.30
2019-06-26T10:23:39.118Z,68.40
2019-06-26T10:26:04.272Z,74.00
2019-06-26T10:28:29.428Z,69.40
2019-06-26T10:30:56.510Z,73.20
2019-06-26T10:33:21.623Z,66.80
2019-06-26T10:35:46.678Z,72.60
2019-06-26T10:38:11.822Z,69.80
2019-06-26T10:40:36.857Z,68.20
2019-06-26T10:43:01.923Z,69.00
2019-06-26T10:45:26.954Z,66.00
2019-06-26T10:47:51.872Z,70.70
2019-06-26T10:50:17.292Z,68.00
2019-06-26T10:52:42.327Z,71.90
2019-06-26T10:55:07.589Z,61.40
2019-06-26T10:57:32.635Z,61.80
2019-06-26T10:59:58.647Z,59.90
2019-06-26T11:02:23.694Z,67.40
2019-06-26T11:04:48.647Z,61.70
2019-06-26T11:07:13.613Z,58.30
2019-06-26T11:09:38.595Z,58.70
2019-06-26T11:12:03.665Z,59.10
2019-06-26T11:14:28.656Z,60.30
2019-06-26T11:16:54.548Z,59.20
2019-06-26T11:19:19.596Z,62.60
2019-06-26T11:21:44.656Z,60.50
2019-06-26T11:24:09.639Z,66.10
2019-06-26T11:26:35.680Z,57.60
2019-06-26T11:29:00.678Z,59.80
2019-06-26T11:31:25.666Z,61.70
2019-06-26T11:33:50.823Z,56.60
2019-06-26T11:36:16.041Z,56.40
2019-06-26T11:38:41.087Z,54.70
2019-06-26T11:41:06.118Z,54.10
2019-06-26T11:43:31.203Z,57.10
2019-06-26T11:45:56.168Z,52.10
2019-06-26T11:48:21.145Z,52.80
2019-06-26T11:50:46.022Z,53.50
2019-06-26T11:53:11.107Z,53.30
2019-06-26T11:55:36.145Z,56.20
2019-06-26T11:58:15.621Z,53.50
2019-06-26T12:00:47.849Z,52.40
2019-06-26T12:03:24.305Z,54.00
2019-06-26T12:06:18.315Z,53.70
2019-06-26T12:08:46.116Z,52.50
2019-06-26T12:11:21.338Z,53.20
2019-06-26T12:13:46.349Z,56.00
2019-06-26T12:16:11.390Z,53.30
2019-06-26T12:18:36.406Z,53.20
2019-06-26T12:21:01.412Z,53.90
2019-06-26T12:23:26.455Z,52.70
2019-06-26T12:25:51.598Z,53.50
2019-06-26T12:28:16.489Z,52.80
2019-06-26T12:30:41.588Z,52.90
2019-06-26T12:33:06.687Z,53.10
2019-06-26T12:35:31.786Z,54.20
2019-06-26T12:37:56.799Z,56.50
2019-06-26T12:40:21.831Z,53.50
2019-06-26T12:42:46.851Z,53.40
2019-06-26T12:45:12.357Z,54.00
2019-06-26T12:47:37.390Z,54.10
2019-06-26T12:50:02.914Z,53.40
2019-06-26T12:52:27.954Z,57.60
2019-06-26T12:54:52.926Z,51.60
2019-06-26T12:57:17.897Z,53.70
2019-06-26T12:59:56.935Z,55.60
2019-06-26T13:02:10.678Z,51.90
2019-06-26T13:04:35.554Z,54.80
2019-06-26T13:07:00.514Z,54.40
2019-06-26T13:09:25.493Z,50.90
2019-06-26T13:11:50.453Z,55.10
2019-06-26T13:14:15.534Z,53.90
2019-06-26T13:16:40.562Z,52.80
2019-06-26T13:19:05.622Z,53.50
2019-06-26T13:21:30.623Z,54.90
2019-06-26T13:23:55.642Z,52.90
2019-06-26T13:26:21.103Z,54.30
2019-06-26T13:28:47.615Z,51.50
2019-06-26T13:31:12.634Z,54.10
2019-06-26T13:33:37.642Z,52.00
2019-06-26T13:36:02.672Z,53.00
2019-06-26T13:38:27.706Z,51.20
2019-06-26T13:40:52.783Z,52.80
2019-06-26T13:43:17.822Z,53.40
2019-06-26T13:45:43.024Z,50.90
2019-06-26T13:48:08.002Z,52.80
2019-06-26T13:50:33.859Z,55.00
2019-06-26T13:52:58.771Z,54.30
2019-06-26T13:55:23.802Z,51.70
2019-06-26T13:57:48.846Z,54.40
2019-06-26T14:00:14.234Z,54.10
2019-06-26T14:02:39.315Z,54.40
2019-06-26T14:05:04.562Z,53.30
2019-06-26T14:07:29.471Z,53.70
2019-06-26T14:09:54.436Z,54.60
2019-06-26T14:12:19.583Z,52.60
2019-06-26T14:14:56.678Z,56.00
2019-06-26T14:17:11.058Z,54.30
2019-06-26T14:19:36.107Z,54.00
2019-06-26T14:22:01.046Z,54.50
2019-06-26T14:24:26.175Z,53.80
2019-06-26T14:26:51.218Z,53.90
2019-06-26T14:29:20.796Z,53.30
2019-06-26T14:31:43.040Z,52.90
2019-06-26T14:34:07.990Z,52.10
2019-06-26T14:36:33.075Z,51.20
2019-06-26T14:38:58.103Z,50.90
2019-06-26T14:41:22.987Z,51.50
2019-06-26T14:43:48.014Z,52.00
2019-06-26T14:46:15.234Z,53.30
2019-06-26T14:48:40.410Z,53.40
2019-06-26T14:51:05.491Z,51.90
2019-06-26T14:53:30.431Z,53.60
2019-06-26T14:55:55.495Z,52.90
2019-06-26T14:58:20.450Z,53.00
2019-06-26T15:00:45.454Z,51.70
2019-06-26T15:03:10.415Z,52.60
2019-06-26T15:05:35.458Z,53.60
2019-06-26T15:08:00.579Z,52.70
2019-06-26T15:10:25.608Z,52.10
2019-06-26T15:12:50.615Z,49.50
2019-06-26T15:15:15.673Z,52.00
2019-06-26T15:17:40.705Z,52.80
2019-06-26T15:20:06.078Z,51.60
2019-06-26T15:22:31.117Z,52.70
2019-06-26T15:24:56.260Z,52.40
2019-06-26T15:27:21.215Z,52.20
2019-06-26T15:29:46.240Z,52.30
2019-06-26T15:32:11.462Z,52.10
2019-06-26T15:34:36.445Z,50.80
2019-06-26T15:37:01.495Z,53.10
2019-06-26T15:39:26.403Z,52.60
2019-06-26T15:41:51.435Z,52.80
2019-06-26T15:44:16.399Z,52.80
2019-06-26T15:46:41.388Z,53.80
2019-06-26T15:49:06.698Z,53.00
2019-06-26T15:51:31.780Z,52.50
2019-06-26T15:53:59.925Z,53.80
2019-06-26T15:56:27.237Z,54.00
2019-06-26T15:58:52.244Z,52.90
2019-06-26T16:01:17.880Z,53.80
2019-06-26T16:03:42.911Z,55.30
2019-06-26T16:06:07.961Z,56.20
2019-06-26T16:08:34.942Z,55.30
2019-06-26T16:11:00.092Z,54.40
2019-06-26T16:13:24.975Z,57.10
2019-06-26T16:15:50.025Z,56.10
2019-06-26T16:18:29.368Z,54.90
2019-06-26T16:20:54.607Z,55.90
2019-06-26T16:23:19.567Z,56.90
2019-06-26T16:25:44.563Z,56.40
2019-06-26T16:28:09.514Z,58.50
2019-06-26T16:30:34.552Z,57.60
2019-06-26T16:32:59.636Z,58.80
2019-06-26T16:35:24.728Z,60.00
2019-06-26T16:37:49.644Z,58.70
2019-06-26T16:40:15.568Z,58.50
2019-06-26T16:42:40.543Z,58.80
2019-06-26T16:45:06.333Z,60.70
2019-06-26T16:47:31.475Z,59.90
2019-06-26T16:49:56.467Z,59.80
2019-06-26T16:52:21.516Z,61.80
2019-06-26T16:54:46.411Z,60.80
2019-06-26T16:57:11.516Z,60.60
2019-06-26T16:59:36.482Z,61.50
2019-06-26T17:02:01.542Z,60.60
2019-06-26T17:04:26.607Z,61.40
2019-06-26T17:06:51.646Z,60.90
2019-06-26T17:09:16.670Z,60.60
2019-06-26T17:11:41.731Z,60.10
2019-06-26T17:14:06.860Z,60.50
2019-06-26T17:16:32.099Z,59.40
2019-06-26T17:18:57.136Z,59.80
2019-06-26T17:21:22.175Z,59.30
2019-06-26T17:23:47.072Z,59.00
2019-06-26T17:26:12.031Z,58.70
2019-06-26T17:28:37.159Z,59.10
2019-06-26T17:31:02.242Z,58.20
2019-06-26T17:33:27.377Z,57.80
2019-06-26T17:35:52.373Z,57.20
2019-06-26T17:38:17.339Z,57.30
2019-06-26T17:40:42.503Z,56.60
2019-06-26T17:43:12.336Z,56.90
2019-06-26T17:45:34.443Z,56.30
2019-06-26T17:47:59.412Z,55.50
2019-06-26T17:50:24.448Z,55.20
2019-06-26T17:52:49.515Z,55.40
2019-06-26T17:55:14.678Z,56.40
2019-06-26T17:57:39.643Z,55.90
2019-06-26T18:00:07.131Z,56.60
2019-06-26T18:02:32.139Z,56.40
2019-06-26T18:04:57.157Z,56.80
2019-06-26T18:07:22.154Z,57.00
2019-06-26T18:09:47.188Z,58.00
2019-06-26T18:12:12.151Z,59.80
2019-06-26T18:14:38.079Z,58.60
2019-06-26T18:17:03.322Z,59.10
2019-06-26T18:19:28.292Z,59.40
2019-06-26T18:21:53.262Z,59.70
2019-06-26T18:24:18.376Z,60.20
2019-06-26T18:26:43.411Z,61.50
2019-06-26T18:29:09.432Z,60.80
2019-06-26T18:31:34.534Z,62.70
2019-06-26T18:33:59.555Z,64.00
2019-06-26T18:36:27.403Z,62.70
2019-06-26T18:38:52.471Z,64.10
2019-06-26T18:41:18.787Z,63.60
2019-06-26T18:43:43.744Z,63.60
2019-06-26T18:46:08.795Z,64.10
2019-06-26T18:48:33.768Z,64.10
2019-06-26T18:50:58.735Z,65.20
2019-06-26T18:53:23.899Z,65.60
2019-06-26T18:55:48.944Z,68.50
2019-06-26T18:58:13.858Z,69.30
2019-06-26T19:00:39.005Z,69.80
2019-06-26T19:03:04.091Z,71.80
2019-06-26T19:05:29.064Z,71.90
2019-06-26T19:07:54.123Z,73.20
2019-06-26T19:10:19.160Z,72.00
2019-06-26T19:12:44.256Z,72.80
2019-06-26T19:15:09.539Z,72.10
2019-06-26T19:17:34.587Z,72.40
2019-06-26T19:19:59.655Z,73.20
2019-06-26T19:22:24.687Z,73.50
2019-06-26T19:24:49.788Z,73.80
2019-06-26T19:27:14.828Z,73.10
2019-06-26T19:29:40.275Z,73.60
2019-06-26T19:32:05.308Z,74.30
2019-06-26T19:34:30.496Z,74.90
2019-06-26T19:36:56.774Z,75.20
2019-06-26T19:39:21.926Z,75.90
2019-06-26T19:41:47.011Z,76.80
2019-06-26T19:44:11.995Z,78.10
2019-06-26T19:46:37.120Z,77.00
2019-06-26T19:49:02.176Z,77.40
2019-06-26T19:51:27.248Z,78.40
2019-06-26T19:53:52.234Z,79.30
2019-06-26T19:56:20.103Z,78.40
2019-06-26T19:58:43.839Z,78.80
2019-06-26T20:01:08.816Z,80.00
2019-06-26T20:03:33.855Z,79.60
2019-06-26T20:05:58.918Z,80.00
2019-06-26T20:08:23.842Z,80.40
2019-06-26T20:10:48.956Z,80.40
2019-06-26T20:13:13.844Z,81.40
2019-06-26T20:15:38.983Z,81.00
2019-06-26T20:18:04.475Z,81.20
2019-06-26T20:20:30.564Z,81.20
2019-06-26T20:22:56.157Z,81.30
2019-06-26T20:25:21.443Z,82.20
2019-06-26T20:27:46.489Z,81.70
2019-06-26T20:30:13.291Z,81.60
2019-06-26T20:32:38.533Z,82.00
2019-06-26T20:35:03.893Z,81.50
2019-06-26T20:37:28.944Z,83.50
2019-06-26T20:39:53.831Z,83.30
2019-06-26T20:42:18.831Z,83.50
2019-06-26T20:44:43.875Z,83.20
2019-06-26T20:47:08.839Z,83.70
2019-06-26T20:49:33.910Z,83.60
2019-06-26T20:51:59.967Z,84.30
2019-06-26T20:54:25.029Z,85.00
2019-06-26T20:56:49.975Z,85.50
2019-06-26T20:59:15.180Z,85.40
2019-06-26T21:01:40.260Z,85.30
2019-06-26T21:04:05.239Z,86.80
2019-06-26T21:06:30.235Z,87.30
2019-06-26T21:08:55.179Z,86.40
2019-06-26T21:11:21.017Z,86.10
2019-06-26T21:13:45.923Z,87.10
2019-06-26T21:16:10.875Z,86.90
2019-06-26T21:18:35.872Z,86.90
2019-06-26T21:21:00.829Z,86.60
2019-06-26T21:23:25.712Z,85.80
2019-06-26T21:25:50.754Z,86.20
2019-06-26T21:28:16.778Z,86.40
2019-06-26T21:30:41.731Z,87.20
2019-06-26T21:33:06.703Z,86.40
2019-06-26T21:35:31.743Z,86.90
2019-06-26T21:37:56.927Z,86.80
2019-06-26T21:40:21.882Z,86.80
2019-06-26T21:42:46.923Z,87.80
2019-06-26T21:45:11.967Z,86.10
2019-06-26T21:47:36.931Z,84.70
2019-06-26T21:50:01.993Z,83.80
2019-06-26T21:52:26.951Z,82.70
2019-06-26T21:54:51.907Z,82.60
2019-06-26T21:57:34.617Z,84.80
2019-06-26T22:00:18.758Z,82.90
2019-06-26T22:03:01.496Z,83.10
2019-06-26T22:05:28.243Z,84.40
2019-06-26T22:08:09.872Z,84.50
2019-06-26T22:10:36.741Z,85.10
2019-06-26T22:13:01.703Z,84.90
2019-06-26T22:15:26.965Z,85.20
2019-06-26T22:17:52.156Z,85.20
2019-06-26T22:20:17.427Z,85.20
2019-06-26T22:22:42.463Z,84.90
2019-06-26T22:25:07.938Z,85.30
2019-06-26T22:27:32.921Z,85.20
2019-06-26T22:29:57.975Z,85.70
2019-06-26T22:32:23.018Z,85.50
2019-06-26T22:34:48.239Z,85.90
2019-06-26T22:37:14.627Z,86.30
2019-06-26T22:39:39.597Z,87.10
2019-06-26T22:42:04.682Z,86.50
2019-06-26T22:44:29.723Z,86.90
2019-06-26T22:46:54.782Z,88.30
2019-06-26T22:49:19.763Z,88.00
2019-06-26T22:51:44.807Z,89.00
2019-06-26T22:54:09.949Z,89.20
2019-06-26T22:56:35.027Z,89.80
2019-06-26T22:59:00.991Z,89.30
2019-06-26T23:01:26.028Z,89.40
2019-06-26T23:03:50.991Z,89.80
2019-06-26T23:06:15.995Z,90.00
2019-06-26T23:08:40.887Z,90.50
2019-06-26T23:11:05.999Z,90.80
2019-06-26T23:13:31.085Z,91.20
2019-06-26T23:15:56.035Z,91.50
2019-06-26T23:18:21.450Z,91.50
2019-06-26T23:20:46.996Z,91.80
2019-06-26T23:23:12.116Z,91.80
2019-06-26T23:25:37.163Z,92.00
2019-06-26T23:28:02.040Z,91.90
2019-06-26T23:30:27.088Z,91.00
2019-06-26T23:32:51.971Z,90.70
2019-06-26T23:35:17.011Z,91.00
2019-06-26T23:37:42.232Z,91.20
2019-06-26T23:40:07.311Z,91.40
2019-06-26T23:42:32.291Z,91.50
2019-06-26T23:44:57.245Z,91.70
2019-06-26T23:47:22.198Z,92.30
2019-06-26T23:49:47.171Z,92.50
2019-06-26T23:52:12.416Z,92.60
2019-06-26T23:54:38.380Z,92.90
2019-06-26T23:57:03.428Z,93.40
2019-06-26T23:59:28.456Z,93.50
